Time;durP1;ratioP1;P1;durP2;ratioP2;P2;SDS_P1;SDS_P2;PMS_P1;PMS_P2;Temp;Humidity;BMP_temperature;BMP_pressure;BME280_temperature;BME280_humidity;BME280_pressure;Samples;Min_cycle;Max_cycle;Signal;HPM_P1;HPM_P2
2023/09/08 00:01:35;;;;;;;9.32;4.53;;;20.10;94.20;;;;;;5023887;28;20043;-70
2023/09/08 00:04:21;;;;;;;7.78;4.45;;;20.00;94.30;;;;;;5042476;28;20475;-70
2023/09/08 00:07:07;;;;;;;6.78;4.57;;;20.00;94.40;;;;;;5039730;28;20037;-69
2023/09/08 00:09:53;;;;;;;6.22;4.40;;;20.00;94.50;;;;;;5032824;28;20049;-70
2023/09/08 00:12:39;;;;;;;6.40;4.55;;;19.90;94.50;;;;;;5025292;28;20496;-70
2023/09/08 00:15:25;;;;;;;6.10;4.40;;;19.90;94.50;;;;;;5046465;28;20040;-69
2023/09/08 00:18:11;;;;;;;6.78;4.47;;;19.90;94.60;;;;;;5035056;28;20369;-69
2023/09/08 00:20:57;;;;;;;6.82;4.45;;;19.90;94.70;;;;;;5035142;28;20076;-70
2023/09/08 00:23:44;;;;;;;9.35;4.53;;;19.90;94.70;;;;;;5038139;28;20048;-69
2023/09/08 00:26:30;;;;;;;7.95;4.85;;;19.90;94.70;;;;;;5041417;28;20128;-70
2023/09/08 00:29:16;;;;;;;6.60;4.80;;;19.90;94.70;;;;;;5045910;28;20041;-70
2023/09/08 00:32:02;;;;;;;6.90;4.82;;;19.80;94.70;;;;;;5038642;28;20048;-70
2023/09/08 00:34:48;;;;;;;8.73;4.45;;;19.80;95.00;;;;;;5041369;28;20033;-70
2023/09/08 00:37:34;;;;;;;7.95;4.30;;;19.70;94.80;;;;;;5018573;28;20060;-70
2023/09/08 00:40:20;;;;;;;6.18;4.50;;;19.60;95.20;;;;;;5029716;28;20369;-70
2023/09/08 00:43:06;;;;;;;7.78;5.07;;;19.60;95.50;;;;;;5032759;28;20056;-69
2023/09/08 00:45:53;;;;;;;8.57;4.70;;;19.60;95.50;;;;;;5051371;28;20033;-70
2023/09/08 00:48:39;;;;;;;8.20;4.75;;;19.60;95.40;;;;;;5042360;28;20124;-69
2023/09/08 00:51:25;;;;;;;7.80;5.45;;;19.50;95.50;;;;;;5030235;28;20124;-70
2023/09/08 00:54:11;;;;;;;11.95;5.05;;;19.40;96.10;;;;;;5037036;28;20564;-70
2023/09/08 00:56:57;;;;;;;12.25;5.05;;;19.30;96.50;;;;;;5033382;28;20095;-70
2023/09/08 00:59:43;;;;;;;8.27;4.50;;;19.20;96.70;;;;;;5032541;28;20044;-70
2023/09/08 01:02:29;;;;;;;12.20;5.97;;;19.20;96.80;;;;;;5039078;28;20455;-70
2023/09/08 01:05:16;;;;;;;6.90;4.88;;;19.10;96.90;;;;;;5024829;28;20044;-70
2023/09/08 01:08:01;;;;;;;7.80;4.80;;;19.10;96.90;;;;;;5037238;28;20048;-70
2023/09/08 01:10:47;;;;;;;7.88;4.65;;;19.00;96.70;;;;;;5035736;28;20052;-71
2023/09/08 01:13:33;;;;;;;6.03;4.70;;;19.10;97.00;;;;;;5036695;28;20128;-70
2023/09/08 01:16:19;;;;;;;10.27;4.70;;;19.10;97.00;;;;;;5060607;28;20629;-70
2023/09/08 01:19:09;;;;;;;6.90;4.90;;;19.10;97.10;;;;;;5034078;28;20037;-70
2023/09/08 01:22:07;;;;;;;6.78;4.82;;;19.10;97.00;;;;;;5037103;28;20048;-70
2023/09/08 01:24:59;;;;;;;;;;;19.10;97.10;;;;;;5036357;28;20041;-70
2023/09/08 01:27:48;;;;;;;7.22;4.95;;;19.00;97.10;;;;;;5037263;28;20544;-70
2023/09/08 01:30:34;;;;;;;8.73;5.00;;;19.00;97.40;;;;;;5021284;28;20048;-70
2023/09/08 01:33:20;;;;;;;7.97;5.28;;;18.90;97.30;;;;;;5014979;28;20037;-70
2023/09/08 01:36:06;;;;;;;7.22;4.78;;;18.90;97.30;;;;;;5025011;28;20038;-70
2023/09/08 01:38:52;;;;;;;7.70;4.82;;;18.90;97.50;;;;;;5045484;28;20110;-70
2023/09/08 01:41:38;;;;;;;9.82;5.13;;;18.90;97.60;;;;;;5036715;28;20219;-70
2023/09/08 01:44:24;;;;;;;9.68;5.07;;;18.90;97.80;;;;;;5034843;28;20516;-70
2023/09/08 01:47:10;;;;;;;9.43;5.22;;;18.80;97.80;;;;;;5025751;28;20041;-70
2023/09/08 01:49:56;;;;;;;10.68;5.55;;;18.80;97.80;;;;;;5047903;28;20082;-70
2023/09/08 01:52:42;;;;;;;7.15;4.43;;;18.90;97.70;;;;;;5021501;28;20842;-70
2023/09/08 01:55:28;;;;;;;8.52;5.10;;;18.90;97.70;;;;;;5038201;28;20041;-70
2023/09/08 01:58:14;;;;;;;8.43;5.28;;;18.90;97.70;;;;;;5017261;28;20042;-70
2023/09/08 02:01:05;;;;;;;8.88;5.28;;;18.90;97.70;;;;;;5050788;28;20551;-70
2023/09/08 02:03:51;;;;;;;10.35;5.55;;;18.90;97.80;;;;;;5054356;28;20042;-70
2023/09/08 02:06:37;;;;;;;9.05;4.88;;;18.80;97.80;;;;;;5030398;28;20046;-69
2023/09/08 02:09:29;;;;;;;5.93;4.55;;;18.80;98.10;;;;;;5043532;28;20067;-70
2023/09/08 02:12:15;;;;;;;10.73;5.32;;;18.80;98.10;;;;;;5036165;28;20627;-70
2023/09/08 02:15:01;;;;;;;6.80;4.65;;;18.70;98.10;;;;;;5027683;28;20048;-70
2023/09/08 02:17:52;;;;;;;7.28;4.68;;;18.70;98.40;;;;;;5031509;28;20052;-70
2023/09/08 02:20:38;;;;;;;9.25;5.10;;;18.60;98.70;;;;;;5041070;28;20045;-70
2023/09/08 02:23:24;;;;;;;9.00;5.13;;;18.60;98.70;;;;;;5047439;28;20548;-70
2023/09/08 02:26:10;;;;;;;8.90;5.47;;;18.50;98.80;;;;;;5044167;28;20044;-70
2023/09/08 02:28:57;;;;;;;8.35;5.65;;;18.50;98.90;;;;;;5036131;28;20158;-70
2023/09/08 02:31:44;;;;;;;8.70;5.03;;;18.50;98.90;;;;;;5028156;28;20045;-70
2023/09/08 02:34:30;;;;;;;7.38;4.70;;;18.50;99.00;;;;;;5034050;28;20769;-70
2023/09/08 02:37:18;;;;;;;6.75;4.75;;;18.40;99.30;;;;;;5039390;28;20041;-70
2023/09/08 02:40:05;;;;;;;8.57;5.13;;;18.40;99.40;;;;;;5043499;28;20053;-70
2023/09/08 02:42:51;;;;;;;7.70;5.25;;;18.40;99.30;;;;;;5019594;28;20140;-70
2023/09/08 02:45:37;;;;;;;13.05;5.20;;;18.30;99.50;;;;;;5050606;28;20127;-70
2023/09/08 02:48:24;;;;;;;9.80;4.97;;;18.30;99.60;;;;;;5026604;28;20041;-70
2023/09/08 02:51:12;;;;;;;8.82;5.30;;;18.20;99.70;;;;;;5035917;28;20477;-70
2023/09/08 02:53:57;;;;;;;8.30;5.13;;;18.20;99.80;;;;;;5030282;28;20033;-70
2023/09/08 02:56:43;;;;;;;9.48;5.07;;;18.10;99.90;;;;;;5063927;28;20318;-70
2023/09/08 02:59:29;;;;;;;9.23;5.57;;;18.10;99.90;;;;;;5039602;28;20079;-70
2023/09/08 03:02:15;;;;;;;8.18;5.30;;;18.10;99.90;;;;;;5052786;28;20071;-70
2023/09/08 03:05:01;;;;;;;7.22;5.20;;;18.10;99.90;;;;;;5038729;28;20365;-70
2023/09/08 03:07:49;;;;;;;10.95;6.18;;;18.10;99.90;;;;;;5033966;28;20037;-69
2023/09/08 03:10:35;;;;;;;17.42;6.10;;;18.00;99.90;;;;;;5048964;28;20049;-70
2023/09/08 03:13:21;;;;;;;9.57;5.82;;;18.00;99.90;;;;;;5034380;28;20152;-69
2023/09/08 03:16:08;;;;;;;9.00;5.47;;;18.00;99.90;;;;;;5040646;28;20171;-70
2023/09/08 03:18:54;;;;;;;11.10;6.22;;;18.00;99.90;;;;;;5019101;28;20057;-70
2023/09/08 03:21:41;;;;;;;8.05;5.78;;;17.90;99.90;;;;;;5042612;28;20069;-70
2023/09/08 03:24:27;;;;;;;9.70;5.45;;;17.90;99.90;;;;;;5034810;28;20041;-70
2023/09/08 03:27:13;;;;;;;9.82;5.60;;;17.90;99.90;;;;;;5044435;28;20573;-69
2023/09/08 03:30:00;;;;;;;10.85;6.18;;;17.90;99.90;;;;;;5050412;28;20060;-70
2023/09/08 03:32:46;;;;;;;9.38;6.00;;;17.80;99.90;;;;;;5049936;28;20067;-70
2023/09/08 03:35:32;;;;;;;10.48;6.10;;;17.80;99.90;;;;;;5032083;28;20064;-70
2023/09/08 03:38:18;;;;;;;10.30;6.07;;;17.70;99.90;;;;;;5036792;28;20043;-70
2023/09/08 03:41:04;;;;;;;8.50;5.95;;;17.70;99.90;;;;;;5050335;28;20114;-70
2023/09/08 03:43:51;;;;;;;9.60;5.82;;;17.70;99.90;;;;;;5020835;28;20064;-70
2023/09/08 03:46:37;;;;;;;9.40;5.53;;;17.70;99.90;;;;;;5039723;28;20069;-70
2023/09/08 03:49:24;;;;;;;8.70;5.75;;;17.70;99.90;;;;;;5044750;28;20040;-70
2023/09/08 03:52:12;;;;;;;9.00;5.43;;;17.70;99.90;;;;;;5029663;28;20029;-69
2023/09/08 03:54:58;;;;;;;9.83;5.93;;;17.60;99.90;;;;;;5041908;28;20048;-70
2023/09/08 03:57:44;;;;;;;6.90;5.43;;;17.50;99.90;;;;;;5044270;28;20771;-70
2023/09/08 04:00:30;;;;;;;10.43;5.80;;;17.50;99.90;;;;;;5019642;28;20374;-69
2023/09/08 04:03:16;;;;;;;9.40;6.00;;;17.50;99.90;;;;;;5017645;28;20056;-70
2023/09/08 04:06:02;;;;;;;8.30;6.10;;;17.50;99.90;;;;;;5022180;28;20688;-70
2023/09/08 04:08:48;;;;;;;9.00;5.90;;;17.40;99.90;;;;;;5027023;28;20132;-70
2023/09/08 04:11:34;;;;;;;8.68;6.22;;;17.50;99.90;;;;;;5034643;28;20720;-70
2023/09/08 04:14:20;;;;;;;8.25;5.82;;;17.50;99.90;;;;;;5022999;28;20124;-70
2023/09/08 04:17:06;;;;;;;9.32;6.43;;;17.40;99.90;;;;;;5044473;28;20040;-70
2023/09/08 04:19:52;;;;;;;9.50;6.65;;;17.40;99.90;;;;;;5023457;28;20119;-70
2023/09/08 04:22:38;;;;;;;9.63;6.10;;;17.40;99.90;;;;;;5051814;28;20146;-72
2023/09/08 04:25:24;;;;;;;9.32;5.57;;;17.30;99.90;;;;;;5035366;28;20187;-72
2023/09/08 04:28:10;;;;;;;8.90;5.90;;;17.30;99.90;;;;;;5029148;28;20051;-73
2023/09/08 04:30:56;;;;;;;10.15;5.72;;;17.30;99.90;;;;;;5033789;28;20037;-72
2023/09/08 04:33:43;;;;;;;9.73;5.72;;;17.30;99.90;;;;;;5037346;28;20051;-72
2023/09/08 04:36:30;;;;;;;10.82;5.93;;;17.20;99.90;;;;;;5033469;28;20373;-72
2023/09/08 04:39:16;;;;;;;8.23;6.38;;;17.30;99.90;;;;;;5034132;28;20191;-72
2023/09/08 04:42:02;;;;;;;7.32;6.05;;;17.20;99.90;;;;;;5040317;28;20127;-72
2023/09/08 04:44:49;;;;;;;8.07;6.05;;;17.20;99.90;;;;;;5022009;28;20041;-72
2023/09/08 04:47:35;;;;;;;10.30;6.15;;;17.20;99.90;;;;;;5033130;28;20366;-72
2023/09/08 04:50:21;;;;;;;9.07;6.10;;;17.10;99.90;;;;;;5045791;28;20045;-72
2023/09/08 04:53:07;;;;;;;10.07;5.95;;;17.10;99.90;;;;;;5034425;28;20056;-72
2023/09/08 04:55:52;;;;;;;16.20;6.85;;;17.00;99.90;;;;;;5041656;28;20044;-72
2023/09/08 04:58:38;;;;;;;8.93;5.45;;;17.00;99.90;;;;;;5031446;28;20478;-72
2023/09/08 05:01:24;;;;;;;7.90;6.07;;;17.00;99.90;;;;;;5034100;28;20125;-72
2023/09/08 05:04:11;;;;;;;9.95;6.18;;;17.00;99.90;;;;;;5030094;28;20053;-72
2023/09/08 05:06:57;;;;;;;7.85;5.80;;;17.00;99.90;;;;;;5024102;28;20052;-73
2023/09/08 05:09:43;;;;;;;14.73;6.38;;;16.90;99.90;;;;;;5022485;28;20094;-72
2023/09/08 05:12:29;;;;;;;10.23;6.38;;;16.80;99.90;;;;;;5029227;28;20036;-72
2023/09/08 05:15:16;;;;;;;9.15;6.55;;;16.80;99.90;;;;;;5015988;28;20387;-72
2023/09/08 05:18:02;;;;;;;15.90;7.13;;;16.80;99.90;;;;;;5036741;28;20037;-72
2023/09/08 05:20:48;;;;;;;13.25;6.60;;;16.80;99.90;;;;;;5046388;28;20636;-72
2023/09/08 05:23:34;;;;;;;10.60;6.60;;;16.90;99.90;;;;;;5042277;28;20516;-72
2023/09/08 05:26:20;;;;;;;9.93;7.32;;;16.90;99.90;;;;;;5037174;28;20045;-73
2023/09/08 05:29:06;;;;;;;14.82;7.90;;;16.90;99.90;;;;;;5031983;28;20749;-72
2023/09/08 05:31:52;;;;;;;11.13;7.32;;;17.00;99.90;;;;;;5026938;28;20060;-72
2023/09/08 05:34:38;;;;;;;12.70;6.55;;;17.00;99.90;;;;;;5037172;28;20037;-72
2023/09/08 05:37:24;;;;;;;15.32;7.28;;;17.00;99.90;;;;;;5036439;28;20046;-73
2023/09/08 05:40:10;;;;;;;11.38;6.97;;;17.10;99.90;;;;;;5033442;28;20052;-72
2023/09/08 05:42:56;;;;;;;18.63;9.80;;;17.10;99.90;;;;;;5042821;28;20052;-72
2023/09/08 05:45:42;;;;;;;18.20;8.45;;;17.10;99.90;;;;;;5043726;28;20843;-72
2023/09/08 05:48:28;;;;;;;15.27;8.30;;;17.10;99.90;;;;;;5037792;28;20045;-72
2023/09/08 05:51:15;;;;;;;13.98;7.38;;;17.10;99.90;;;;;;5028635;28;20552;-72
2023/09/08 05:54:01;;;;;;;12.10;7.57;;;17.20;99.90;;;;;;5043663;28;20041;-72
2023/09/08 05:56:47;;;;;;;12.80;6.97;;;17.20;99.90;;;;;;5031720;28;20051;-72
2023/09/08 05:59:33;;;;;;;15.32;7.65;;;17.30;99.90;;;;;;5033394;28;20037;-72
2023/09/08 06:02:18;;;;;;;12.15;7.80;;;17.40;99.90;;;;;;5048911;28;20040;-72
2023/09/08 06:05:05;;;;;;;12.57;7.57;;;17.40;99.90;;;;;;5024628;28;20470;-73
2023/09/08 06:07:51;;;;;;;9.85;6.75;;;17.50;99.90;;;;;;5042927;28;20041;-72
2023/09/08 06:10:38;;;;;;;13.85;7.40;;;17.50;99.90;;;;;;5033241;28;20048;-72
2023/09/08 06:13:24;;;;;;;13.35;7.30;;;17.50;99.90;;;;;;5050142;28;20887;-72
2023/09/08 06:16:10;;;;;;;14.82;7.38;;;17.50;99.90;;;;;;5031469;28;20045;-73
2023/09/08 06:18:56;;;;;;;15.45;7.93;;;17.50;99.90;;;;;;5037569;28;20084;-73
2023/09/08 06:21:43;;;;;;;14.57;8.00;;;17.60;99.90;;;;;;5020885;28;20041;-73
2023/09/08 06:24:29;;;;;;;12.57;7.35;;;17.60;99.90;;;;;;5047245;28;20098;-73
2023/09/08 06:27:16;;;;;;;10.35;7.85;;;17.60;99.90;;;;;;5042232;28;20049;-72
2023/09/08 06:30:02;;;;;;;10.30;7.63;;;17.60;99.90;;;;;;5035113;28;20374;-73
2023/09/08 06:32:48;;;;;;;11.82;7.90;;;17.70;99.90;;;;;;5046620;28;20060;-73
2023/09/08 06:35:34;;;;;;;10.10;7.10;;;17.80;99.90;;;;;;5036069;28;20512;-72
2023/09/08 06:38:20;;;;;;;10.63;7.78;;;17.90;99.90;;;;;;5035374;28;20084;-72
2023/09/08 06:41:12;;;;;;;10.55;7.18;;;17.90;99.90;;;;;;5035340;28;20638;-72
2023/09/08 06:43:58;;;;;;;11.23;7.07;;;18.00;99.90;;;;;;5055631;28;20045;-72
2023/09/08 06:46:44;;;;;;;10.43;7.43;;;18.10;99.90;;;;;;5023283;28;20049;-73
2023/09/08 06:49:30;;;;;;;12.90;7.13;;;18.10;99.90;;;;;;5047536;28;20105;-72
2023/09/08 06:52:17;;;;;;;9.90;7.72;;;18.20;99.90;;;;;;5036870;28;20440;-73
2023/09/08 06:55:04;;;;;;;10.52;6.78;;;18.30;99.90;;;;;;5032400;28;20037;-73
2023/09/08 06:57:50;;;;;;;10.70;7.10;;;18.30;99.90;;;;;;5031441;28;20120;-73
2023/09/08 07:00:37;;;;;;;7.85;6.38;;;18.40;99.90;;;;;;5035569;28;20037;-72
2023/09/08 07:03:23;;;;;;;10.20;6.80;;;18.50;99.90;;;;;;5053128;28;20131;-71
2023/09/08 07:06:09;;;;;;;8.23;6.53;;;18.60;99.90;;;;;;5051396;28;20041;-73
2023/09/08 07:08:55;;;;;;;12.82;7.40;;;18.70;99.90;;;;;;5039764;28;20046;-72
2023/09/08 07:11:40;;;;;;;11.80;7.15;;;18.70;99.90;;;;;;5034536;28;20118;-72
2023/09/08 07:14:26;;;;;;;10.80;7.15;;;18.70;99.90;;;;;;5038419;28;20063;-72
2023/09/08 07:17:12;;;;;;;14.45;6.60;;;18.80;99.90;;;;;;5041269;28;20037;-73
2023/09/08 07:19:58;;;;;;;13.00;6.47;;;18.90;99.90;;;;;;5028573;28;20134;-73
2023/09/08 07:22:44;;;;;;;8.48;5.93;;;19.00;99.90;;;;;;5028244;28;20041;-72
2023/09/08 07:25:30;;;;;;;11.23;6.78;;;19.00;99.90;;;;;;5028659;28;20048;-72
2023/09/08 07:28:16;;;;;;;10.60;6.70;;;19.10;99.90;;;;;;5049712;28;20051;-72
2023/09/08 07:31:08;;;;;;;13.20;6.50;;;19.10;99.90;;;;;;5034593;28;20045;-72
2023/09/08 07:33:54;;;;;;;11.07;6.60;;;19.20;99.90;;;;;;5031066;28;20037;-73
2023/09/08 07:36:40;;;;;;;13.75;7.15;;;19.30;99.90;;;;;;5039917;28;20638;-73
2023/09/08 07:39:26;;;;;;;8.35;6.20;;;19.40;99.90;;;;;;5045308;28;20045;-72
2023/09/08 07:42:12;;;;;;;8.45;5.32;;;19.50;99.90;;;;;;5042063;28;20033;-72
2023/09/08 07:44:58;;;;;;;9.80;5.57;;;19.60;99.90;;;;;;5038484;28;20076;-73
2023/09/08 07:47:45;;;;;;;10.13;6.20;;;19.70;99.90;;;;;;5046256;28;20045;-74
2023/09/08 07:50:31;;;;;;;11.18;5.78;;;19.70;99.90;;;;;;5039375;28;20423;-72
2023/09/08 07:53:17;;;;;;;10.13;6.20;;;19.80;99.90;;;;;;5036899;28;20039;-72
2023/09/08 07:56:04;;;;;;;8.27;6.03;;;20.00;99.90;;;;;;5044002;28;20045;-72
2023/09/08 07:58:50;;;;;;;9.07;6.07;;;20.00;99.90;;;;;;5050158;28;20541;-73
2023/09/08 08:01:36;;;;;;;8.30;5.70;;;20.10;99.90;;;;;;5035879;28;20041;-72
2023/09/08 08:04:21;;;;;;;9.13;5.45;;;20.20;99.90;;;;;;5023977;28;20098;-73
2023/09/08 08:07:07;;;;;;;9.25;6.20;;;20.30;99.90;;;;;;5040679;28;20041;-73
2023/09/08 08:09:54;;;;;;;11.65;5.55;;;20.40;99.90;;;;;;5037228;28;20040;-73
2023/09/08 08:12:40;;;;;;;13.10;6.20;;;20.60;99.90;;;;;;5054084;28;20071;-73
2023/09/08 08:15:39;;;;;;;7.00;5.10;;;20.70;99.90;;;;;;5019047;28;20072;-72
2023/09/08 08:18:25;;;;;;;11.02;5.68;;;20.80;99.90;;;;;;5058515;28;20475;-73
2023/09/08 08:21:11;;;;;;;7.15;4.90;;;20.90;99.90;;;;;;5026122;28;20049;-73
2023/09/08 08:23:57;;;;;;;13.63;5.57;;;21.00;99.90;;;;;;5038057;28;20041;-73
2023/09/08 08:26:43;;;;;;;9.25;5.30;;;21.20;99.90;;;;;;5035975;28;20147;-73
2023/09/08 08:29:29;;;;;;;10.57;4.80;;;21.20;99.90;;;;;;5024645;28;20077;-73
2023/09/08 08:32:15;;;;;;;7.85;5.00;;;21.40;99.90;;;;;;5042510;28;20082;-73
2023/09/08 08:35:01;;;;;;;9.77;5.30;;;21.40;99.90;;;;;;5022671;28;20041;-72
2023/09/08 08:37:47;;;;;;;8.00;5.00;;;21.60;99.90;;;;;;5038959;28;20041;-73
2023/09/08 08:40:34;;;;;;;9.05;4.40;;;21.70;99.90;;;;;;5022042;28;20040;-73
2023/09/08 08:43:21;;;;;;;8.35;4.68;;;21.80;99.90;;;;;;5024726;28;20049;-73
2023/09/08 08:46:07;;;;;;;10.48;4.47;;;22.00;99.90;;;;;;5034641;28;20047;-73
2023/09/08 08:48:54;;;;;;;7.82;4.40;;;22.10;99.90;;;;;;5031509;28;20065;-70
2023/09/08 08:51:45;;;;;;;8.97;4.07;;;22.20;99.90;;;;;;5030551;28;20478;-70
2023/09/08 08:54:31;;;;;;;6.57;4.00;;;22.30;99.90;;;;;;5039116;28;20132;-71
2023/09/08 08:57:17;;;;;;;6.60;3.40;;;22.50;99.10;;;;;;5009830;28;20413;-71
2023/09/08 09:00:09;;;;;;;7.63;4.00;;;22.50;96.70;;;;;;5030969;28;20041;-70
2023/09/08 09:02:56;;;;;;;7.32;3.95;;;22.60;95.60;;;;;;5040565;28;20048;-71
2023/09/08 09:05:42;;;;;;;8.73;3.30;;;22.70;95.90;;;;;;5033713;28;20101;-70
2023/09/08 09:08:28;;;;;;;5.47;3.47;;;22.90;94.90;;;;;;5038152;28;20049;-70
2023/09/08 09:11:14;;;;;;;4.72;3.25;;;22.90;95.70;;;;;;5042622;28;20287;-72
2023/09/08 09:14:01;;;;;;;5.18;3.05;;;23.00;93.50;;;;;;5025106;28;20041;-72
2023/09/08 09:16:47;;;;;;;6.38;3.38;;;23.20;92.90;;;;;;5036851;28;20762;-73
2023/09/08 09:19:35;;;;;;;6.32;3.70;;;23.40;92.80;;;;;;5039441;28;20103;-72
2023/09/08 09:22:23;;;;;;;7.18;3.38;;;23.40;93.40;;;;;;5039579;28;20041;-73
2023/09/08 09:25:10;;;;;;;8.35;3.42;;;23.60;93.00;;;;;;5028045;28;20055;-73
2023/09/08 09:27:57;;;;;;;5.63;3.30;;;23.80;93.70;;;;;;5024691;28;20055;-73
2023/09/08 09:30:56;;;;;;;7.57;4.20;;;23.90;92.70;;;;;;5035219;28;20115;-73
2023/09/08 09:33:42;;;;;;;6.00;3.10;;;24.00;92.60;;;;;;5038252;28;20045;-72
2023/09/08 09:36:28;;;;;;;6.28;3.50;;;24.10;92.70;;;;;;5021850;28;20445;-73
2023/09/08 09:39:22;;;;;;;5.20;3.10;;;24.30;91.80;;;;;;5053810;28;20040;-72
2023/09/08 09:42:08;;;;;;;7.10;3.60;;;24.30;91.90;;;;;;5024166;28;20695;-73
2023/09/08 09:44:53;;;;;;;5.75;3.25;;;24.70;92.20;;;;;;5053302;28;20037;-73
2023/09/08 09:47:39;;;;;;;10.18;3.58;;;24.80;91.50;;;;;;5040852;28;20116;-73
2023/09/08 09:50:33;;;;;;;4.57;3.38;;;24.80;90.20;;;;;;5034075;28;20045;-73
2023/09/08 09:53:20;;;;;;;4.70;3.47;;;24.90;90.70;;;;;;5033994;28;20037;-73
2023/09/08 09:56:06;;;;;;;7.20;3.42;;;25.20;90.00;;;;;;5019665;28;20044;-73
2023/09/08 09:58:53;;;;;;;5.97;3.65;;;25.30;90.00;;;;;;5024453;28;20107;-73
2023/09/08 10:01:42;;;;;;;7.05;3.03;;;25.50;89.60;;;;;;5020949;28;20351;-73
2023/09/08 10:04:28;;;;;;;6.50;3.47;;;25.60;87.60;;;;;;5033762;28;20814;-73
2023/09/08 10:07:14;;;;;;;6.90;3.58;;;25.60;87.50;;;;;;5044308;28;20053;-73
2023/09/08 10:10:00;;;;;;;8.02;3.80;;;25.70;87.00;;;;;;5031542;28;20041;-72
2023/09/08 10:12:52;;;;;;;6.28;3.35;;;25.90;84.30;;;;;;5033410;28;20037;-73
2023/09/08 10:15:37;;;;;;;5.43;3.25;;;26.00;85.00;;;;;;5025869;28;20053;-73
2023/09/08 10:18:23;;;;;;;8.05;3.22;;;26.20;85.80;;;;;;5039297;28;20052;-72
2023/09/08 10:21:09;;;;;;;4.53;3.13;;;26.20;85.80;;;;;;5023528;28;20057;-73
2023/09/08 10:24:27;;;;;;;6.85;4.25;;;26.20;84.70;;;;;;5038364;28;20666;-73
2023/09/08 10:27:14;;;;;;;;;;;26.30;84.90;;;;;;5025426;28;20045;-73
2023/09/08 10:30:04;;;;;;;5.32;3.13;;;26.60;85.00;;;;;;5023374;28;19944;-74
2023/09/08 10:32:50;;;;;;;5.97;3.72;;;26.70;85.80;;;;;;5034389;28;20037;-73
2023/09/08 10:35:37;;;;;;;7.60;3.38;;;26.80;82.50;;;;;;5027503;28;20044;-72
2023/09/08 10:38:31;;;;;;;5.28;3.78;;;26.90;83.60;;;;;;5039777;28;20040;-73
2023/09/08 10:41:17;;;;;;;6.32;3.20;;;27.00;83.70;;;;;;5034619;28;20124;-73
2023/09/08 10:44:07;;;;;;;6.18;3.67;;;27.10;81.00;;;;;;5037818;28;20120;-73
2023/09/08 10:46:53;;;;;;;5.95;3.50;;;27.30;81.00;;;;;;5042393;28;20041;-73
2023/09/08 10:49:40;;;;;;;5.35;3.25;;;27.40;81.30;;;;;;5019616;28;20462;-74
2023/09/08 10:52:26;;;;;;;6.32;3.70;;;27.50;80.20;;;;;;5032863;28;20128;-73
2023/09/08 10:55:13;;;;;;;6.47;3.80;;;27.50;80.90;;;;;;5022314;28;20045;-73
2023/09/08 10:57:58;;;;;;;4.65;3.22;;;27.60;80.50;;;;;;5039620;28;20068;-73
2023/09/08 11:00:46;;;;;;;9.82;3.35;;;27.70;77.80;;;;;;5044056;28;20080;-73
2023/09/08 11:03:38;;;;;;;5.15;3.72;;;27.70;76.10;;;;;;5041993;28;20477;-73
2023/09/08 11:06:30;;;;;;;9.10;3.50;;;27.70;77.10;;;;;;5041048;28;20045;-73
2023/09/08 11:09:16;;;;;;;6.80;3.20;;;27.80;77.40;;;;;;5037000;28;20100;-73
2023/09/08 11:12:05;;;;;;;5.40;3.22;;;27.90;75.60;;;;;;5032785;28;20041;-73
2023/09/08 11:14:51;;;;;;;5.20;3.15;;;27.90;76.10;;;;;;5033992;28;20037;-73
2023/09/08 11:17:39;;;;;;;6.45;3.20;;;28.10;75.50;;;;;;5044830;28;20119;-73
2023/09/08 11:20:29;;;;;;;4.95;3.30;;;28.20;75.30;;;;;;5041066;28;20140;-73
2023/09/08 11:23:15;;;;;;;6.10;3.45;;;28.50;77.50;;;;;;5041051;28;20052;-74
2023/09/08 11:26:01;;;;;;;6.47;3.10;;;28.60;75.90;;;;;;5015195;28;20041;-73
2023/09/08 11:28:49;;;;;;;5.97;3.38;;;28.70;75.40;;;;;;5040479;28;20151;-73
2023/09/08 11:31:35;;;;;;;5.05;3.15;;;28.70;74.60;;;;;;5032286;28;20136;-72
2023/09/08 11:34:21;;;;;;;7.47;3.47;;;28.80;73.20;;;;;;5019613;28;20072;-73
2023/09/08 11:37:13;;;;;;;4.63;3.00;;;28.90;74.00;;;;;;5032703;28;20048;-72
2023/09/08 11:39:59;;;;;;;12.85;3.60;;;28.80;72.70;;;;;;5048578;28;20033;-72
2023/09/08 11:42:46;;;;;;;4.57;3.17;;;28.80;70.80;;;;;;5031083;28;20117;-73
2023/09/08 11:45:35;;;;;;;4.10;3.03;;;28.80;72.00;;;;;;5014243;28;20180;-73
2023/09/08 11:48:24;;;;;;;6.35;2.78;;;28.90;69.90;;;;;;5039160;28;20102;-73
2023/09/08 11:51:10;;;;;;;6.60;3.10;;;28.90;69.10;;;;;;5022407;28;20128;-73
2023/09/08 11:53:56;;;;;;;6.85;3.10;;;29.10;71.00;;;;;;5045846;28;20091;-74
2023/09/08 11:56:42;;;;;;;4.65;2.85;;;29.20;73.00;;;;;;5023662;28;20033;-72
2023/09/08 11:59:28;;;;;;;6.38;3.10;;;29.40;71.40;;;;;;5034674;28;20061;-73
2023/09/08 12:02:14;;;;;;;6.07;2.90;;;29.40;71.10;;;;;;5047200;28;20484;-73
2023/09/08 12:05:01;;;;;;;5.97;2.83;;;29.40;67.90;;;;;;5024031;28;20049;-73
2023/09/08 12:07:47;;;;;;;8.93;3.20;;;29.50;67.60;;;;;;5036152;28;20041;-73
2023/09/08 12:10:40;;;;;;;7.60;3.23;;;29.60;69.50;;;;;;5040901;28;20473;-73
2023/09/08 12:13:26;;;;;;;5.78;2.80;;;29.50;67.90;;;;;;5025579;28;20115;-73
2023/09/08 12:16:19;;;;;;;8.10;3.33;;;29.70;68.70;;;;;;5021928;28;20100;-73
2023/09/08 12:19:06;;;;;;;6.10;3.30;;;29.80;69.70;;;;;;5034192;28;20053;-73
2023/09/08 12:21:59;;;;;;;8.30;2.95;;;30.00;69.80;;;;;;5027776;28;20131;-73
2023/09/08 12:24:56;;;;;;;6.45;3.05;;;30.10;68.80;;;;;;5021726;28;20123;-73
2023/09/08 12:27:42;;;;;;;8.40;3.10;;;30.20;70.10;;;;;;5038778;28;20045;-73
2023/09/08 12:30:35;;;;;;;6.03;2.92;;;30.20;68.00;;;;;;5028093;28;20044;-73
2023/09/08 12:33:21;;;;;;;5.18;3.03;;;30.40;66.40;;;;;;5026379;28;20044;-73
2023/09/08 12:36:17;;;;;;;3.92;2.75;;;30.40;64.50;;;;;;5040901;28;20037;-73
2023/09/08 12:39:04;;;;;;;7.03;2.60;;;30.60;64.30;;;;;;5022939;28;20128;-73
2023/09/08 12:41:50;;;;;;;8.15;2.70;;;30.70;63.60;;;;;;5038920;28;20079;-73
2023/09/08 12:44:36;;;;;;;7.15;2.67;;;30.70;63.50;;;;;;5034875;28;20041;-73
2023/09/08 12:47:22;;;;;;;7.28;3.00;;;31.00;65.90;;;;;;5031577;28;20573;-73
2023/09/08 12:50:09;;;;;;;6.00;2.88;;;31.20;65.40;;;;;;5018443;28;20041;-73
2023/09/08 12:52:56;;;;;;;4.95;3.10;;;31.40;64.90;;;;;;5031211;28;20462;-73
2023/09/08 12:55:44;;;;;;;5.70;2.88;;;31.30;62.50;;;;;;5038788;28;20378;-73
2023/09/08 12:58:30;;;;;;;3.88;2.83;;;31.30;61.00;;;;;;5041608;28;20037;-74
2023/09/08 13:01:16;;;;;;;5.65;3.08;;;31.60;62.00;;;;;;5030102;28;20045;-73
2023/09/08 13:04:02;;;;;;;5.88;2.85;;;31.90;63.70;;;;;;5030165;28;20041;-74
2023/09/08 13:06:49;;;;;;;5.70;2.75;;;32.10;64.50;;;;;;5033720;28;20114;-74
2023/09/08 13:09:35;;;;;;;4.68;2.80;;;32.20;62.40;;;;;;5031426;28;20045;-75
2023/09/08 13:12:21;;;;;;;4.80;2.58;;;32.30;61.70;;;;;;5046271;28;20045;-74
2023/09/08 13:15:07;;;;;;;4.03;2.70;;;32.70;60.60;;;;;;5046489;28;20044;-75
2023/09/08 13:17:53;;;;;;;5.45;2.92;;;33.10;59.30;;;;;;5029932;28;20037;-74
2023/09/08 13:20:39;;;;;;;6.18;2.58;;;33.10;59.70;;;;;;5030443;28;20474;-75
2023/09/08 13:23:25;;;;;;;4.03;2.65;;;33.20;59.40;;;;;;5022808;28;20040;-74
2023/09/08 13:26:11;;;;;;;5.95;2.60;;;33.50;58.50;;;;;;5014299;28;20067;-74
2023/09/08 13:28:57;;;;;;;3.40;2.30;;;33.60;57.30;;;;;;5030810;28;20370;-74
2023/09/08 13:31:43;;;;;;;5.25;3.03;;;33.50;58.10;;;;;;5029952;28;20102;-74
2023/09/08 13:34:29;;;;;;;5.38;2.80;;;33.90;58.40;;;;;;5042351;28;20733;-75
2023/09/08 13:37:15;;;;;;;5.88;2.75;;;34.00;57.20;;;;;;5039321;28;20148;-75
2023/09/08 13:40:03;;;;;;;4.72;2.80;;;33.90;57.00;;;;;;5036668;28;20497;-73
2023/09/08 13:42:49;;;;;;;4.30;2.50;;;33.60;56.30;;;;;;5023611;28;20037;-73
2023/09/08 13:45:35;;;;;;;4.45;2.63;;;34.00;58.00;;;;;;5030880;28;20054;-74
2023/09/08 13:48:21;;;;;;;6.80;3.05;;;34.40;57.80;;;;;;5039181;28;20074;-74
2023/09/08 13:51:08;;;;;;;9.02;4.68;;;34.70;56.80;;;;;;5025963;28;20049;-75
2023/09/08 13:53:54;;;;;;;6.38;3.00;;;34.80;57.40;;;;;;5037319;28;20116;-73
2023/09/08 13:56:40;;;;;;;6.78;2.97;;;35.10;57.40;;;;;;5038039;28;20045;-74
2023/09/08 13:59:28;;;;;;;4.45;2.80;;;35.30;57.30;;;;;;5014973;28;20120;-73
2023/09/08 14:02:14;;;;;;;3.97;2.75;;;35.40;56.60;;;;;;5041725;28;20051;-73
2023/09/08 14:05:00;;;;;;;5.65;2.75;;;35.50;57.30;;;;;;5037221;28;20065;-73
2023/09/08 14:07:46;;;;;;;7.90;2.72;;;35.60;56.20;;;;;;5026594;28;20049;-73
2023/09/08 14:10:32;;;;;;;4.05;2.60;;;35.50;55.10;;;;;;5011587;28;20048;-77
2023/09/08 14:13:18;;;;;;;7.07;2.83;;;35.10;55.60;;;;;;5034012;28;20033;-75
2023/09/08 14:16:04;;;;;;;3.15;2.50;;;35.30;55.90;;;;;;5031770;28;20048;-74
2023/09/08 14:18:50;;;;;;;4.28;2.75;;;35.20;55.70;;;;;;5042378;28;20038;-73
2023/09/08 14:21:37;;;;;;;5.40;2.85;;;35.50;55.80;;;;;;5029691;28;20466;-74
2023/09/08 14:24:23;;;;;;;6.32;2.63;;;35.50;54.30;;;;;;5022487;28;20045;-73
2023/09/08 14:27:09;;;;;;;5.27;2.60;;;35.40;54.70;;;;;;5034199;28;20694;-73